This is the latest recevied weather packets stored in our database for station/object LRTR. If no packets are shown the sender has not sent any weather packets the latest 10 day(s).
| Time | Temp. | Humidity | Pressure | Rain* | Wind** | Luminosity | Snow |
|---|---|---|---|---|---|---|---|
| 1777753985 | 7.22° C | 76% | 1020 hPa | - | - | - | - |
| 1777753085 | 7.78° C | 71% | 1020 hPa | - | - | - | - |
| 1777752185 | 7.78° C | 71% | 1020 hPa | - | - | - | - |
| 1777751285 | 8.89° C | 71% | 1020 hPa | - | - | - | - |
| 1777750386 | 8.89° C | 71% | 1020 hPa | - | - | - | - |
| 1777749485 | 11.11° C | 58% | 1020 hPa | - | - | - | - |
| 1777748585 | 11.11° C | 58% | 1020 hPa | - | - | - | - |
| 1777747685 | 12.22° C | 58% | 1019 hPa | - | - | - | - |
| 1777746785 | 12.22° C | 58% | 1019 hPa | - | - | - | - |
| 1777745885 | 15° C | 42% | 1019 hPa | - | - | - | - |
| 1777744985 | 15° C | 42% | 1019 hPa | - | - | - | - |
| 1777744085 | 16.11° C | 42% | 1019 hPa | - | - | - | - |
| 1777743185 | 16.11° C | 42% | 1019 hPa | - | - | - | - |
| 1777742285 | 17.22° C | 39% | 1019 hPa | - | - | - | - |
| 1777741385 | 17.22° C | 39% | 1019 hPa | - | - | - | - |
| 1777740485 | 18.89° C | 32% | 1019 hPa | - | - | - | - |
| 1777739585 | 18.89° C | 32% | 1019 hPa | - | - | - | - |
| 1777738685 | 18.89° C | 30% | 1019 hPa | - | - | - | - |
| 1777737785 | 18.89° C | 30% | 1019 hPa | - | - | - | - |
| 1777736891 | 20° C | 30% | 1019 hPa | - | - | - | - |
| 1777735986 | 20° C | 30% | 1019 hPa | - | - | - | - |
| 1777735085 | 20° C | 28% | 1019 hPa | - | - | - | - |
| 1777734185 | 20° C | 28% | 1019 hPa | - | - | - | - |
| 1777733285 | 20° C | 30% | 1019 hPa | - | - | - | - |
| 1777732385 | 20° C | 30% | 1019 hPa | - | - | - | - |
* Rain since midnight (hover to see other rain measurements)
** Current wind speed in m/s (hover to see current wind gust speed)